createdAt,value
2019-04-01T00:00:12.294Z,4.36
2019-04-01T00:01:12.239Z,4.34
2019-04-01T00:02:12.240Z,4.33
2019-04-01T00:03:13.147Z,4.31
2019-04-01T00:04:12.244Z,4.32
2019-04-01T00:05:12.277Z,4.21
2019-04-01T00:06:12.322Z,4.36
2019-04-01T00:07:13.185Z,4.24
2019-04-01T00:08:12.297Z,4.35
2019-04-01T00:09:12.387Z,4.33
2019-04-01T00:10:12.626Z,4.27
2019-04-01T00:11:12.439Z,4.4
2019-04-01T00:12:12.254Z,4.32
2019-04-01T00:13:12.292Z,4.35
2019-04-01T00:14:12.265Z,4.35
2019-04-01T00:15:12.315Z,4.37
2019-04-01T00:16:12.312Z,4.31
2019-04-01T00:17:12.228Z,4.27
2019-04-01T00:18:12.239Z,4.29
2019-04-01T00:19:12.218Z,4.21
2019-04-01T00:20:12.237Z,4.2
2019-04-01T00:21:12.245Z,4.2
2019-04-01T00:22:13.425Z,4.22
2019-04-01T00:23:13.161Z,4.17
2019-04-01T00:24:12.230Z,4.17
2019-04-01T00:25:12.264Z,4.12
2019-04-01T00:26:12.227Z,4.27
2019-04-01T00:27:12.224Z,4.22
2019-04-01T00:28:12.368Z,4.2
2019-04-01T00:29:12.222Z,4.19
2019-04-01T00:30:12.287Z,4.13
2019-04-01T00:31:12.270Z,4.33
2019-04-01T00:32:12.323Z,4.24
2019-04-01T00:33:12.205Z,4.21
2019-04-01T00:34:12.231Z,4.17
2019-04-01T00:35:12.348Z,4.21
2019-04-01T00:36:12.206Z,4.25
2019-04-01T00:37:12.283Z,4.28
2019-04-01T00:38:12.270Z,4.34
2019-04-01T00:39:12.235Z,4.28
2019-04-01T00:40:12.187Z,4.26
2019-04-01T00:41:12.231Z,4.23
2019-04-01T00:42:12.439Z,4.14
2019-04-01T00:43:12.293Z,4.22
2019-04-01T00:44:12.305Z,4.18
2019-04-01T00:45:12.281Z,4.23
2019-04-01T00:46:12.184Z,4.12
2019-04-01T00:47:12.176Z,4.13
2019-04-01T00:48:12.221Z,4.15
2019-04-01T00:49:12.163Z,4.15
2019-04-01T00:50:12.189Z,4.16
2019-04-01T00:51:12.245Z,4.1
2019-04-01T00:52:12.181Z,4.21
2019-04-01T00:53:12.222Z,4.13
2019-04-01T00:54:12.267Z,4.23
2019-04-01T00:55:12.212Z,4.13
2019-04-01T00:56:12.155Z,4.16
2019-04-01T00:57:12.209Z,4.27
2019-04-01T00:58:12.162Z,4.18
2019-04-01T00:59:12.207Z,4.15
2019-04-01T01:00:12.198Z,4.13
2019-04-01T01:01:12.170Z,4.19
2019-04-01T01:02:12.157Z,4.15
2019-04-01T01:03:12.179Z,4.09
2019-04-01T01:04:12.160Z,4.19
2019-04-01T01:05:12.156Z,4.06
2019-04-01T01:06:12.187Z,4.26
2019-04-01T01:07:12.203Z,4.2
2019-04-01T01:08:12.130Z,4.13
2019-04-01T01:09:12.209Z,4.03
2019-04-01T01:10:12.181Z,4.13
2019-04-01T01:11:12.183Z,4.13
2019-04-01T01:12:12.154Z,4.13
2019-04-01T01:13:12.152Z,4.17
2019-04-01T01:14:12.140Z,4.01
2019-04-01T01:15:14.740Z,4.04
2019-04-01T01:16:12.210Z,4.16
2019-04-01T01:17:12.161Z,4.04
2019-04-01T01:18:12.235Z,4.08
2019-04-01T01:19:12.122Z,4.08
2019-04-01T01:20:12.238Z,4.04
2019-04-01T01:21:12.181Z,4.01
2019-04-01T01:22:12.195Z,4.09
2019-04-01T01:23:12.160Z,4.11
2019-04-01T01:24:12.173Z,4.13
2019-04-01T01:25:12.181Z,4.09
2019-04-01T01:26:12.137Z,3.96
2019-04-01T01:27:12.155Z,3.99
2019-04-01T01:28:12.147Z,3.95
2019-04-01T01:29:12.158Z,4.02
2019-04-01T01:30:12.226Z,4.14
2019-04-01T01:31:12.157Z,4.11
2019-04-01T01:32:12.132Z,4.18
2019-04-01T01:33:12.157Z,4.06
2019-04-01T01:34:12.172Z,3.99
2019-04-01T01:35:12.204Z,3.97
2019-04-01T01:36:12.189Z,4
2019-04-01T01:37:12.169Z,4.03
2019-04-01T01:38:12.148Z,4.16
2019-04-01T01:39:12.140Z,4.12
2019-04-01T01:40:12.156Z,3.99
2019-04-01T01:41:12.139Z,4.12
2019-04-01T01:42:12.127Z,4.15
2019-04-01T01:43:12.152Z,4.11
2019-04-01T01:44:12.267Z,4.11
2019-04-01T01:45:12.166Z,4.02
2019-04-01T01:46:12.160Z,3.97
2019-04-01T01:47:12.166Z,4.04
2019-04-01T01:48:12.174Z,4.06
2019-04-01T01:49:12.259Z,4.17
2019-04-01T01:50:12.166Z,4.1
2019-04-01T01:51:12.099Z,4.1
2019-04-01T01:52:12.154Z,4.04
2019-04-01T01:53:12.147Z,3.98
2019-04-01T01:54:14.404Z,4
2019-04-01T01:55:12.135Z,3.95
2019-04-01T01:56:12.123Z,4.07
2019-04-01T01:57:12.110Z,3.95
2019-04-01T01:58:12.585Z,4.03
2019-04-01T01:59:12.149Z,4.07
2019-04-01T02:00:12.100Z,4.02
2019-04-01T02:01:12.085Z,4.07
2019-04-01T02:02:12.137Z,3.98
2019-04-01T02:03:12.333Z,3.92
2019-04-01T02:04:12.072Z,3.96
2019-04-01T02:05:12.084Z,4.06
2019-04-01T02:06:12.081Z,3.97
2019-04-01T02:07:12.071Z,3.87
2019-04-01T02:08:12.115Z,4.06
2019-04-01T02:09:12.142Z,4.19
2019-04-01T02:10:12.156Z,4.03
2019-04-01T02:11:12.113Z,3.93
2019-04-01T02:12:12.120Z,3.98
2019-04-01T02:13:12.074Z,4.14
2019-04-01T02:14:13.465Z,4.11
2019-04-01T02:15:12.140Z,4.09
2019-04-01T02:16:12.123Z,4.02
2019-04-01T02:17:12.127Z,3.89
2019-04-01T02:18:12.107Z,3.94
2019-04-01T02:19:12.083Z,3.85
2019-04-01T02:20:12.090Z,3.92
2019-04-01T02:21:12.065Z,3.9
2019-04-01T02:22:12.114Z,3.79
2019-04-01T02:23:12.089Z,3.85
2019-04-01T02:24:12.108Z,3.83
2019-04-01T02:25:12.161Z,3.7
2019-04-01T02:26:12.052Z,3.78
2019-04-01T02:27:12.195Z,3.66
2019-04-01T02:28:12.095Z,3.68
2019-04-01T02:29:12.254Z,3.78
2019-04-01T02:30:12.296Z,3.7
2019-04-01T02:31:12.068Z,3.61
2019-04-01T02:32:12.053Z,3.73
2019-04-01T02:33:12.172Z,3.86
2019-04-01T02:34:12.053Z,3.9
2019-04-01T02:35:12.059Z,3.93
2019-04-01T02:36:12.061Z,3.83
2019-04-01T02:37:12.048Z,3.92
2019-04-01T02:38:12.053Z,3.91
2019-04-01T02:39:12.080Z,3.87
2019-04-01T02:40:12.154Z,3.85
2019-04-01T02:41:12.377Z,3.92
2019-04-01T02:42:12.285Z,4.02
2019-04-01T02:43:12.131Z,3.95
2019-04-01T02:44:12.051Z,3.75
2019-04-01T02:45:12.182Z,3.91
2019-04-01T02:46:12.120Z,3.75
2019-04-01T02:47:12.125Z,3.79
2019-04-01T02:48:14.619Z,4.05
2019-04-01T02:49:12.093Z,3.84
2019-04-01T02:50:12.110Z,3.95
2019-04-01T02:51:12.051Z,3.89
2019-04-01T02:52:12.186Z,3.9
2019-04-01T02:53:12.083Z,3.98
2019-04-01T02:54:12.054Z,3.82
2019-04-01T02:55:12.074Z,3.68
2019-04-01T02:56:12.925Z,3.67
2019-04-01T02:57:12.067Z,3.82
2019-04-01T02:58:12.060Z,3.6
2019-04-01T02:59:12.048Z,3.71
2019-04-01T03:00:12.105Z,3.68
2019-04-01T03:01:12.278Z,3.58
2019-04-01T03:02:12.105Z,3.59
2019-04-01T03:03:12.068Z,3.77
2019-04-01T03:04:12.116Z,3.8
2019-04-01T03:05:11.998Z,3.69
2019-04-01T03:06:13.081Z,3.75
2019-04-01T03:07:12.221Z,3.62
2019-04-01T03:08:12.092Z,3.71
2019-04-01T03:09:12.028Z,3.75
2019-04-01T03:10:12.061Z,3.65
2019-04-01T03:11:11.988Z,3.72
2019-04-01T03:12:12.046Z,3.56
2019-04-01T03:13:12.055Z,3.69
2019-04-01T03:14:12.072Z,3.66
2019-04-01T03:15:12.093Z,3.59
2019-04-01T03:16:12.122Z,3.76
2019-04-01T03:17:12.035Z,3.76
2019-04-01T03:18:12.052Z,3.61
2019-04-01T03:19:12.032Z,3.6
2019-04-01T03:20:12.005Z,3.81
2019-04-01T03:21:12.016Z,3.75
2019-04-01T03:22:12.049Z,3.7
2019-04-01T03:23:12.019Z,3.75
2019-04-01T03:24:12.015Z,3.56
2019-04-01T03:25:12.138Z,3.61
2019-04-01T03:26:12.070Z,3.49
2019-04-01T03:27:17.847Z,3.45
2019-04-01T03:28:12.066Z,3.81
2019-04-01T03:29:12.143Z,3.8
2019-04-01T03:30:12.346Z,3.77
2019-04-01T03:31:13.249Z,3.73
2019-04-01T03:32:13.389Z,3.67
2019-04-01T03:33:12.057Z,3.58
2019-04-01T03:34:12.124Z,3.51
2019-04-01T03:35:12.167Z,3.64
2019-04-01T03:36:11.998Z,3.56
2019-04-01T03:37:12.099Z,3.48
2019-04-01T03:38:12.259Z,3.42
2019-04-01T03:39:12.013Z,3.48
2019-04-01T03:40:12.033Z,3.7
2019-04-01T03:41:12.081Z,3.75
2019-04-01T03:42:12.071Z,3.72
2019-04-01T03:43:12.084Z,3.66
2019-04-01T03:44:12.081Z,3.59
2019-04-01T03:45:12.005Z,3.63
2019-04-01T03:46:13.519Z,3.52
2019-04-01T03:47:12.333Z,3.64
2019-04-01T03:48:12.888Z,3.52
2019-04-01T03:49:12.037Z,3.39
2019-04-01T03:50:12.874Z,3.49
2019-04-01T03:51:12.037Z,3.38
2019-04-01T03:52:12.057Z,3.33
2019-04-01T03:53:12.086Z,3.52
2019-04-01T03:54:12.012Z,3.6
2019-04-01T03:55:11.999Z,3.66
2019-04-01T03:56:11.941Z,3.67
2019-04-01T03:57:12.036Z,3.49
2019-04-01T03:58:12.031Z,3.52
2019-04-01T03:59:11.982Z,3.54
2019-04-01T04:00:12.860Z,3.6
2019-04-01T04:01:12.132Z,3.66
2019-04-01T04:02:11.963Z,3.61
2019-04-01T04:03:11.984Z,3.63
2019-04-01T04:04:11.919Z,3.56
2019-04-01T04:05:11.946Z,3.45
2019-04-01T04:06:11.935Z,3.54
2019-04-01T04:07:12.024Z,3.6
2019-04-01T04:08:12.101Z,3.58
2019-04-01T04:09:12.502Z,3.7
2019-04-01T04:10:11.991Z,3.54
2019-04-01T04:11:11.911Z,3.6
2019-04-01T04:12:12.092Z,3.45
2019-04-01T04:13:11.973Z,3.62
2019-04-01T04:14:11.940Z,3.69
2019-04-01T04:15:11.994Z,3.72
2019-04-01T04:16:12.059Z,3.7
2019-04-01T04:17:11.964Z,3.6
2019-04-01T04:18:12.054Z,3.47
2019-04-01T04:19:11.962Z,3.52
2019-04-01T04:20:12.002Z,3.52
2019-04-01T04:21:11.930Z,3.75
2019-04-01T04:22:11.943Z,3.64
2019-04-01T04:23:11.948Z,3.59
2019-04-01T04:24:12.047Z,3.68
2019-04-01T04:25:12.036Z,3.45
2019-04-01T04:26:11.971Z,3.51
2019-04-01T04:27:12.081Z,3.71
2019-04-01T04:28:11.978Z,3.64
2019-04-01T04:29:11.963Z,3.51
2019-04-01T04:30:12.236Z,3.36
2019-04-01T04:31:11.960Z,3.62
2019-04-01T04:32:11.952Z,3.62
2019-04-01T04:33:11.943Z,3.72
2019-04-01T04:34:11.949Z,3.55
2019-04-01T04:35:11.898Z,3.69
2019-04-01T04:36:12.066Z,3.71
2019-04-01T04:37:12.045Z,3.72
2019-04-01T04:38:11.969Z,3.64
2019-04-01T04:39:11.943Z,3.71
2019-04-01T04:40:11.859Z,3.72
2019-04-01T04:41:11.963Z,3.7
2019-04-01T04:42:11.929Z,3.75
2019-04-01T04:43:11.920Z,3.64
2019-04-01T04:44:11.883Z,3.44
2019-04-01T04:45:11.873Z,3.61
2019-04-01T04:46:11.903Z,3.72
2019-04-01T04:47:11.921Z,3.72
2019-04-01T04:48:11.963Z,3.73
2019-04-01T04:49:11.858Z,3.54
2019-04-01T04:50:11.871Z,3.5
2019-04-01T04:51:12.010Z,3.73
2019-04-01T04:52:12.380Z,3.82
2019-04-01T04:53:11.871Z,3.68
2019-04-01T04:54:11.866Z,3.74
2019-04-01T04:55:11.853Z,3.82
2019-04-01T04:56:11.870Z,3.63
2019-04-01T04:57:11.975Z,3.7
2019-04-01T04:58:11.864Z,3.83
2019-04-01T04:59:11.898Z,3.74
2019-04-01T05:00:11.868Z,3.68
2019-04-01T05:01:11.847Z,3.73
2019-04-01T05:02:11.877Z,3.74
2019-04-01T05:03:11.885Z,3.64
2019-04-01T05:04:12.000Z,3.88
2019-04-01T05:05:11.860Z,3.74
2019-04-01T05:06:11.819Z,3.66
2019-04-01T05:07:11.866Z,3.5
2019-04-01T05:08:11.914Z,3.78
2019-04-01T05:09:11.876Z,3.8
2019-04-01T05:10:11.875Z,3.93
2019-04-01T05:11:12.729Z,3.91
2019-04-01T05:12:11.845Z,3.72
2019-04-01T05:13:11.844Z,3.61
2019-04-01T05:14:11.871Z,3.9
2019-04-01T05:15:11.906Z,3.92
2019-04-01T05:16:11.865Z,3.73
2019-04-01T05:17:11.826Z,3.75
2019-04-01T05:18:11.881Z,3.8
2019-04-01T05:19:11.918Z,3.89
2019-04-01T05:20:11.847Z,3.86
2019-04-01T05:21:11.832Z,3.89
2019-04-01T05:22:11.859Z,3.72
2019-04-01T05:23:11.889Z,3.64
2019-04-01T05:24:11.842Z,3.65
2019-04-01T05:25:11.839Z,3.55
2019-04-01T05:26:11.850Z,3.59
2019-04-01T05:27:11.896Z,3.73
2019-04-01T05:28:11.833Z,3.79
2019-04-01T05:29:11.818Z,3.68
2019-04-01T05:30:11.863Z,3.78
2019-04-01T05:31:15.138Z,3.62
2019-04-01T05:32:11.861Z,3.55
2019-04-01T05:33:11.825Z,3.48
2019-04-01T05:34:11.835Z,3.61
2019-04-01T05:35:11.861Z,3.61
2019-04-01T05:36:12.485Z,3.76
2019-04-01T05:37:11.852Z,3.64
2019-04-01T05:38:11.812Z,3.79
2019-04-01T05:39:11.879Z,3.67
2019-04-01T05:40:11.831Z,3.87
2019-04-01T05:41:11.791Z,3.93
2019-04-01T05:42:11.832Z,3.96
2019-04-01T05:43:11.820Z,3.75
2019-04-01T05:44:11.828Z,3.64
2019-04-01T05:45:11.865Z,3.86
2019-04-01T05:46:11.783Z,3.9
2019-04-01T05:47:11.790Z,3.96
2019-04-01T05:48:11.791Z,3.96
2019-04-01T05:49:11.793Z,3.89
2019-04-01T05:50:11.838Z,3.92
2019-04-01T05:51:11.824Z,3.8
2019-04-01T05:52:11.809Z,3.82
2019-04-01T05:53:11.802Z,3.82
2019-04-01T05:54:11.811Z,3.69
2019-04-01T05:55:11.825Z,3.95
2019-04-01T05:56:11.793Z,3.82
2019-04-01T05:57:11.841Z,3.73
2019-04-01T05:58:11.924Z,3.74
2019-04-01T05:59:11.785Z,3.81
2019-04-01T06:00:11.776Z,3.92
2019-04-01T06:01:11.783Z,3.88
2019-04-01T06:02:11.804Z,4.03
2019-04-01T06:03:11.776Z,3.95
2019-04-01T06:04:11.802Z,3.95
2019-04-01T06:05:11.799Z,4.04
2019-04-01T06:06:11.753Z,3.91
2019-04-01T06:07:11.753Z,4.02
2019-04-01T06:08:11.790Z,3.86
2019-04-01T06:09:11.858Z,3.95
2019-04-01T06:10:11.750Z,3.82
2019-04-01T06:11:11.783Z,3.74
2019-04-01T06:12:11.771Z,3.92
2019-04-01T06:13:11.750Z,4.08
2019-04-01T06:14:11.739Z,4.02
2019-04-01T06:15:11.783Z,4.04
2019-04-01T06:16:11.811Z,4.06
2019-04-01T06:17:11.802Z,4.07
2019-04-01T06:18:11.892Z,4.02
2019-04-01T06:19:11.987Z,4.1
2019-04-01T06:20:12.017Z,4.03
2019-04-01T06:21:11.824Z,4.11
2019-04-01T06:22:11.759Z,4.11
2019-04-01T06:23:11.796Z,4.12
2019-04-01T06:24:11.766Z,4.07
2019-04-01T06:25:12.119Z,4.22
2019-04-01T06:26:11.784Z,4.12
2019-04-01T06:27:14.029Z,4.09
2019-04-01T06:28:11.747Z,4.1
2019-04-01T06:29:11.778Z,4.17
2019-04-01T06:30:11.713Z,4.2
2019-04-01T06:31:11.815Z,4.15
2019-04-01T06:32:11.725Z,4.26
2019-04-01T06:33:11.846Z,4.12
2019-04-01T06:34:11.788Z,4.17
2019-04-01T06:35:11.746Z,4.1
2019-04-01T06:36:11.770Z,4.22
2019-04-01T06:37:11.798Z,4.23
2019-04-01T06:38:11.699Z,4.17
2019-04-01T06:39:12.214Z,4.12
2019-04-01T06:40:11.705Z,4.1
2019-04-01T06:41:12.088Z,4.33
2019-04-01T06:42:11.837Z,4.21
2019-04-01T06:43:11.779Z,4.32
2019-04-01T06:44:11.765Z,4.29
2019-04-01T06:45:11.736Z,4.3
2019-04-01T06:46:11.698Z,4.32
2019-04-01T06:47:11.788Z,4.3
2019-04-01T06:48:11.747Z,4.21
2019-04-01T06:49:11.703Z,4.31
2019-04-01T06:50:11.698Z,4.32
2019-04-01T06:51:11.687Z,4.28
2019-04-01T06:52:11.716Z,4.35
2019-04-01T06:53:11.691Z,4.24
2019-04-01T06:54:12.612Z,4.38
2019-04-01T06:55:11.765Z,4.39
2019-04-01T06:56:11.789Z,4.35
2019-04-01T06:57:11.705Z,4.38
2019-04-01T06:58:12.351Z,4.38
2019-04-01T06:59:11.679Z,4.38
2019-04-01T07:00:11.727Z,4.28
2019-04-01T07:01:11.731Z,4.37
2019-04-01T07:02:11.738Z,4.4
2019-04-01T07:03:12.573Z,4.41
2019-04-01T07:04:11.954Z,4.41
2019-04-01T07:05:13.143Z,4.43
2019-04-01T07:06:11.668Z,4.47
2019-04-01T07:07:19.854Z,4.45
2019-04-01T07:08:11.748Z,4.51
2019-04-01T07:09:11.657Z,4.47
2019-04-01T07:10:11.853Z,4.52
2019-04-01T07:11:11.779Z,4.48
2019-04-01T07:12:12.582Z,4.47
2019-04-01T07:13:12.945Z,4.54
2019-04-01T07:14:11.688Z,4.59
2019-04-01T07:15:11.681Z,4.59
2019-04-01T07:16:16.565Z,4.52
2019-04-01T07:17:11.676Z,4.47
2019-04-01T07:18:11.660Z,4.51
2019-04-01T07:19:11.626Z,4.5
2019-04-01T07:20:11.733Z,4.48
2019-04-01T07:21:11.686Z,4.48
2019-04-01T07:22:11.666Z,4.51
2019-04-01T07:23:11.670Z,4.58
2019-04-01T07:24:11.667Z,4.5
2019-04-01T07:25:11.864Z,4.52
2019-04-01T07:26:11.756Z,4.5
2019-04-01T07:27:12.567Z,4.56
2019-04-01T07:28:11.697Z,4.7
2019-04-01T07:29:11.665Z,4.68
2019-04-01T07:30:12.844Z,4.69
2019-04-01T07:31:11.660Z,4.73
2019-04-01T07:32:14.940Z,4.74
2019-04-01T07:33:11.773Z,4.76
2019-04-01T07:34:11.702Z,4.77
2019-04-01T07:35:11.643Z,4.76
2019-04-01T07:36:11.685Z,4.79
2019-04-01T07:37:11.893Z,4.71
2019-04-01T07:38:11.636Z,4.72
2019-04-01T07:39:11.618Z,4.72
2019-04-01T07:40:14.645Z,4.66
2019-04-01T07:41:11.611Z,4.64
2019-04-01T07:42:11.644Z,4.64
2019-04-01T07:43:15.616Z,4.67
2019-04-01T07:44:11.643Z,4.74
2019-04-01T07:45:11.634Z,4.71
2019-04-01T07:46:11.639Z,4.67
2019-04-01T07:47:11.686Z,4.62
2019-04-01T07:48:13.224Z,4.64
2019-04-01T07:49:12.570Z,4.72
2019-04-01T07:50:13.004Z,4.66
2019-04-01T07:51:11.836Z,4.7
2019-04-01T07:52:12.598Z,4.63
2019-04-01T07:53:11.662Z,4.74
2019-04-01T07:54:11.640Z,4.71
2019-04-01T07:55:11.644Z,4.69
2019-04-01T07:56:11.656Z,4.67
2019-04-01T07:57:11.602Z,4.69
2019-04-01T07:58:11.593Z,4.69
2019-04-01T07:59:11.637Z,4.69
2019-04-01T08:00:11.667Z,4.72
2019-04-01T08:01:11.620Z,4.64
2019-04-01T08:02:11.622Z,4.7
2019-04-01T08:03:11.676Z,4.75
2019-04-01T08:04:11.581Z,4.74
2019-04-01T08:05:12.519Z,4.78
2019-04-01T08:06:11.616Z,4.82
2019-04-01T08:07:14.049Z,4.88
2019-04-01T08:08:11.606Z,4.85
2019-04-01T08:09:11.645Z,4.72
2019-04-01T08:10:11.687Z,4.74
2019-04-01T08:11:11.633Z,4.76
2019-04-01T08:12:11.658Z,4.69
2019-04-01T08:13:11.678Z,4.69
2019-04-01T08:14:12.517Z,4.71
2019-04-01T08:15:11.610Z,4.75
2019-04-01T08:16:11.622Z,4.81
2019-04-01T08:17:11.785Z,4.87
2019-04-01T08:18:11.617Z,4.81
2019-04-01T08:19:12.552Z,4.83
2019-04-01T08:20:11.600Z,4.85
2019-04-01T08:21:12.818Z,4.8
2019-04-01T08:22:11.615Z,4.83
2019-04-01T08:23:11.616Z,4.86
2019-04-01T08:24:11.694Z,4.88
2019-04-01T08:25:11.574Z,4.8
2019-04-01T08:26:12.461Z,4.84
2019-04-01T08:27:11.561Z,4.9
2019-04-01T08:28:11.726Z,4.91
2019-04-01T08:29:11.615Z,4.89
2019-04-01T08:30:11.576Z,4.91
2019-04-01T08:31:13.804Z,4.83
2019-04-01T08:32:14.470Z,4.87
2019-04-01T08:33:11.576Z,4.76
2019-04-01T08:34:11.651Z,4.85
2019-04-01T08:35:11.540Z,4.84
2019-04-01T08:36:11.573Z,4.88
2019-04-01T08:37:11.585Z,4.93
2019-04-01T08:38:11.575Z,4.99
2019-04-01T08:39:11.560Z,4.98
2019-04-01T08:40:11.573Z,5.06
2019-04-01T08:41:11.582Z,5.1
2019-04-01T08:42:11.590Z,4.91
2019-04-01T08:43:11.596Z,5.08
2019-04-01T08:44:11.586Z,5.06
2019-04-01T08:45:11.572Z,5.05
2019-04-01T08:46:11.526Z,5.06
2019-04-01T08:47:11.531Z,5.05
2019-04-01T08:48:11.537Z,5.13
2019-04-01T08:49:11.544Z,5.06
2019-04-01T08:50:11.536Z,5.11
2019-04-01T08:51:11.590Z,5.11
2019-04-01T08:52:12.265Z,5.1
2019-04-01T08:53:11.662Z,5.12
2019-04-01T08:54:11.580Z,5.06
2019-04-01T08:55:11.619Z,5.16
2019-04-01T08:56:11.527Z,4.96
2019-04-01T08:57:11.665Z,5.07
2019-04-01T08:58:11.677Z,5.21
2019-04-01T08:59:11.572Z,5.12
2019-04-01T09:00:11.564Z,5.12
2019-04-01T09:01:11.630Z,5.17
2019-04-01T09:02:18.858Z,5.1
2019-04-01T09:03:11.555Z,5.18
2019-04-01T09:04:11.557Z,5.23
2019-04-01T09:05:11.547Z,5.26
2019-04-01T09:06:12.756Z,5.26
2019-04-01T09:07:11.560Z,5.21
2019-04-01T09:08:11.566Z,5.24
2019-04-01T09:09:11.530Z,5.22
2019-04-01T09:10:11.511Z,5.22
2019-04-01T09:11:11.508Z,5.22
2019-04-01T09:12:11.562Z,5.29
2019-04-01T09:13:11.552Z,5.33
2019-04-01T09:14:11.815Z,5.26
2019-04-01T09:15:11.536Z,5.39
2019-04-01T09:16:12.853Z,5.39
2019-04-01T09:17:11.559Z,5.3
2019-04-01T09:18:11.496Z,5.35
2019-04-01T09:19:11.573Z,5.35
2019-04-01T09:20:11.499Z,5.46
2019-04-01T09:21:11.504Z,5.42
2019-04-01T09:22:11.546Z,5.37
2019-04-01T09:23:11.520Z,5.51
2019-04-01T09:24:11.498Z,5.48
2019-04-01T09:25:11.531Z,5.42
2019-04-01T09:26:11.492Z,5.49
2019-04-01T09:27:11.532Z,5.48
2019-04-01T09:28:11.473Z,5.42
2019-04-01T09:29:11.497Z,5.53
2019-04-01T09:30:11.468Z,5.64
2019-04-01T09:31:11.477Z,5.74
2019-04-01T09:32:11.496Z,5.67
2019-04-01T09:33:11.485Z,5.66
2019-04-01T09:34:11.504Z,5.71
2019-04-01T09:35:11.661Z,5.69
2019-04-01T09:36:13.346Z,5.77
2019-04-01T09:37:11.492Z,5.72
2019-04-01T09:38:11.467Z,5.73
2019-04-01T09:39:11.478Z,5.69
2019-04-01T09:40:12.389Z,5.72
2019-04-01T09:41:13.955Z,5.68
2019-04-01T09:42:11.464Z,5.51
2019-04-01T09:43:14.724Z,5.67
2019-04-01T09:44:11.459Z,5.72
2019-04-01T09:45:11.458Z,5.75
2019-04-01T09:46:11.491Z,5.67
2019-04-01T09:47:11.432Z,5.7
2019-04-01T09:48:11.433Z,5.8
2019-04-01T09:49:11.487Z,5.87
2019-04-01T09:50:11.452Z,5.83
2019-04-01T09:51:11.470Z,5.98
2019-04-01T09:52:11.532Z,5.92
2019-04-01T09:53:11.462Z,5.81
2019-04-01T09:54:12.664Z,5.8
2019-04-01T09:55:11.452Z,5.75
2019-04-01T09:56:13.148Z,5.83
2019-04-01T09:57:18.610Z,5.88
2019-04-01T09:58:11.570Z,5.7
2019-04-01T09:59:11.534Z,5.81
2019-04-01T10:00:24.400Z,5.93
2019-04-01T10:01:11.743Z,5.93
2019-04-01T10:02:13.097Z,5.94
2019-04-01T10:03:11.468Z,5.92
2019-04-01T10:04:11.428Z,5.75
2019-04-01T10:05:11.422Z,5.87
2019-04-01T10:06:11.525Z,5.91
2019-04-01T10:07:11.408Z,6.05
2019-04-01T10:08:11.539Z,6
2019-04-01T10:09:11.558Z,5.95
2019-04-01T10:10:11.459Z,6.05
2019-04-01T10:11:13.312Z,5.86
2019-04-01T10:12:11.418Z,6.03
2019-04-01T10:13:11.418Z,5.91
2019-04-01T10:14:11.483Z,5.76
2019-04-01T10:15:11.447Z,6.15
2019-04-01T10:16:11.426Z,6.09
2019-04-01T10:17:11.465Z,5.94
2019-04-01T10:18:11.482Z,5.94
2019-04-01T10:19:11.472Z,5.78
2019-04-01T10:20:11.440Z,5.95
2019-04-01T10:21:11.496Z,6.01
2019-04-01T10:22:11.449Z,5.99
2019-04-01T10:23:11.400Z,5.88
2019-04-01T10:24:11.430Z,5.94
2019-04-01T10:25:11.406Z,5.93
2019-04-01T10:26:11.405Z,5.9
2019-04-01T10:27:14.715Z,6.15
2019-04-01T10:28:13.030Z,5.89
2019-04-01T10:29:13.044Z,6.04
2019-04-01T10:30:12.574Z,6.12
2019-04-01T10:31:11.406Z,6.01
2019-04-01T10:32:11.442Z,5.99
2019-04-01T10:33:11.572Z,6.08
2019-04-01T10:34:11.419Z,6.01
2019-04-01T10:35:11.440Z,6.17
2019-04-01T10:36:11.384Z,6.12
2019-04-01T10:37:11.390Z,6.08
2019-04-01T10:38:11.466Z,5.97
2019-04-01T10:39:11.437Z,6.16
2019-04-01T10:40:11.518Z,6.36
2019-04-01T10:41:11.552Z,6.28
2019-04-01T10:42:11.470Z,6.06
2019-04-01T10:43:11.413Z,6.29
2019-04-01T10:44:11.431Z,6.33
2019-04-01T10:45:14.712Z,6.48
2019-04-01T10:46:15.446Z,6.32
2019-04-01T10:47:11.825Z,6.45
2019-04-01T10:48:11.583Z,6.33
2019-04-01T10:49:11.745Z,6.14
2019-04-01T10:50:11.596Z,6.06
2019-04-01T10:51:11.687Z,6.22
2019-04-01T10:52:11.746Z,6.19
2019-04-01T10:53:11.640Z,6.18
2019-04-01T10:54:12.781Z,6.18
2019-04-01T10:55:11.750Z,6.23
2019-04-01T10:56:11.749Z,6.18
2019-04-01T10:57:11.838Z,6.36
2019-04-01T10:58:11.674Z,6.41
2019-04-01T10:59:11.804Z,6.38
2019-04-01T11:00:11.940Z,6.34
2019-04-01T11:01:11.594Z,6.31
2019-04-01T11:02:12.006Z,6.3
2019-04-01T11:03:11.743Z,6.31
2019-04-01T11:04:11.773Z,6.32
2019-04-01T11:05:11.820Z,6.31
2019-04-01T11:06:11.658Z,6.49
2019-04-01T11:07:11.801Z,6.46
2019-04-01T11:08:11.665Z,6.36
2019-04-01T11:09:11.758Z,6.11
2019-04-01T11:10:12.267Z,6.27
2019-04-01T11:11:11.452Z,6.23
2019-04-01T11:12:11.380Z,6.22
2019-04-01T11:13:11.356Z,6.34
2019-04-01T11:14:11.360Z,6.5
2019-04-01T11:15:16.198Z,6.42
2019-04-01T11:16:11.446Z,6.45
2019-04-01T11:17:11.419Z,6.39
2019-04-01T11:18:12.570Z,6.59
2019-04-01T11:19:11.432Z,6.48
2019-04-01T11:20:11.362Z,6.61
2019-04-01T11:21:11.328Z,6.51
2019-04-01T11:22:11.357Z,6.41
2019-04-01T11:23:11.359Z,6.32
2019-04-01T11:24:11.344Z,6.44
2019-04-01T11:25:11.344Z,6.69
2019-04-01T11:26:11.463Z,6.61
2019-04-01T11:27:11.314Z,6.7
2019-04-01T11:28:11.371Z,6.64
2019-04-01T11:29:11.363Z,6.68
2019-04-01T11:30:14.416Z,6.77
2019-04-01T11:31:11.605Z,6.58
2019-04-01T11:32:14.121Z,6.59
2019-04-01T11:33:12.815Z,6.37
2019-04-01T11:34:11.592Z,6.58
2019-04-01T11:35:11.990Z,6.62
2019-04-01T11:36:11.513Z,6.64
2019-04-01T11:37:11.534Z,6.58
2019-04-01T11:38:11.609Z,6.69
2019-04-01T11:39:11.589Z,6.76
2019-04-01T11:40:13.201Z,6.83
2019-04-01T11:41:11.723Z,6.87
2019-04-01T11:42:11.734Z,6.63
2019-04-01T11:43:11.511Z,6.56
2019-04-01T11:44:11.713Z,6.7
2019-04-01T11:45:11.587Z,6.71
2019-04-01T11:46:13.303Z,6.84
2019-04-01T11:47:11.568Z,6.76
2019-04-01T11:48:11.603Z,6.64
2019-04-01T11:49:11.563Z,6.65
2019-04-01T11:50:11.540Z,6.85
2019-04-01T11:51:11.532Z,6.81
2019-04-01T11:52:12.647Z,6.88
2019-04-01T11:53:11.351Z,6.83
2019-04-01T11:54:11.355Z,6.82
2019-04-01T11:55:11.377Z,6.7
2019-04-01T11:56:11.334Z,6.86
2019-04-01T11:57:14.007Z,6.55
2019-04-01T11:58:11.290Z,6.78
2019-04-01T11:59:11.428Z,6.87
2019-04-01T12:00:13.885Z,6.64
2019-04-01T12:01:11.473Z,6.66
2019-04-01T12:02:11.309Z,6.77
2019-04-01T12:03:11.307Z,6.69
2019-04-01T12:04:11.349Z,6.63
2019-04-01T12:05:11.342Z,6.55
2019-04-01T12:06:11.475Z,6.67
2019-04-01T12:07:11.475Z,6.62
2019-04-01T12:08:11.332Z,6.61
2019-04-01T12:09:11.362Z,6.63
2019-04-01T12:10:11.327Z,6.56
2019-04-01T12:11:11.309Z,6.62
2019-04-01T12:12:24.684Z,6.63
2019-04-01T12:13:11.345Z,6.75
2019-04-01T12:14:11.318Z,6.94
2019-04-01T12:15:12.950Z,6.51
2019-04-01T12:16:12.660Z,6.57
2019-04-01T12:17:11.277Z,6.82
2019-04-01T12:18:11.304Z,6.73
2019-04-01T12:19:11.259Z,6.99
2019-04-01T12:20:11.275Z,7.14
2019-04-01T12:21:11.364Z,7.03
2019-04-01T12:22:11.697Z,7.05
2019-04-01T12:23:11.274Z,7.08
2019-04-01T12:24:11.311Z,6.93
2019-04-01T12:25:11.253Z,6.89
2019-04-01T12:26:18.030Z,6.93
2019-04-01T12:27:11.340Z,7.01
2019-04-01T12:28:11.368Z,7.05
2019-04-01T12:29:14.941Z,6.98
2019-04-01T12:30:11.286Z,6.93
2019-04-01T12:31:13.378Z,7
2019-04-01T12:32:11.291Z,7.05
2019-04-01T12:33:11.292Z,6.94
2019-04-01T12:34:11.295Z,6.68
2019-04-01T12:35:11.366Z,6.8
2019-04-01T12:36:12.255Z,7
2019-04-01T12:37:11.328Z,6.65
2019-04-01T12:38:11.255Z,6.72
2019-04-01T12:39:11.422Z,6.77
2019-04-01T12:40:11.492Z,6.91
2019-04-01T12:41:11.319Z,6.96
2019-04-01T12:42:11.318Z,6.93
2019-04-01T12:43:11.269Z,6.72
2019-04-01T12:44:11.684Z,6.64
2019-04-01T12:45:11.384Z,6.67
2019-04-01T12:46:11.285Z,6.85
2019-04-01T12:47:11.375Z,7.05
2019-04-01T12:48:11.299Z,7.09
2019-04-01T12:49:11.319Z,7.22
2019-04-01T12:50:13.126Z,6.9
2019-04-01T12:51:11.257Z,6.78
2019-04-01T12:52:11.284Z,6.96
2019-04-01T12:53:11.234Z,7.08
2019-04-01T12:54:11.327Z,7.17
2019-04-01T12:55:11.275Z,7.3
2019-04-01T12:56:11.253Z,7.17
2019-04-01T12:57:11.299Z,6.95
2019-04-01T12:58:11.259Z,7.05
2019-04-01T12:59:11.297Z,7.06
2019-04-01T13:00:11.257Z,6.86
2019-04-01T13:01:11.292Z,6.61
2019-04-01T13:02:11.266Z,6.89
2019-04-01T13:03:11.273Z,6.93
2019-04-01T13:04:11.290Z,6.93
2019-04-01T13:05:11.222Z,7.02
2019-04-01T13:06:11.278Z,7.04
2019-04-01T13:07:11.282Z,6.99
2019-04-01T13:08:11.273Z,7.04
2019-04-01T13:09:11.206Z,7.15
2019-04-01T13:10:11.260Z,7.16
2019-04-01T13:11:11.282Z,7.08
2019-04-01T13:12:11.303Z,6.92
2019-04-01T13:13:13.322Z,6.79
2019-04-01T13:14:11.298Z,6.56
2019-04-01T13:15:13.379Z,6.73
2019-04-01T13:16:11.337Z,6.64
2019-04-01T13:17:11.272Z,6.38
2019-04-01T13:18:11.337Z,6.73
2019-04-01T13:19:11.224Z,6.7
2019-04-01T13:20:11.234Z,6.44
2019-04-01T13:21:11.637Z,6.63